sensor_id;sensor_type;location;lat;lon;timestamp;temperature;humidity
70269;DHT22;58514;48.398;-4.274;2022-08-19T00:02:04;19.40;95.10
70269;DHT22;58514;48.398;-4.274;2022-08-19T00:04:32;19.40;95.30
70269;DHT22;58514;48.398;-4.274;2022-08-19T00:07:00;19.40;95.10
70269;DHT22;58514;48.398;-4.274;2022-08-19T00:09:25;19.50;95.30
70269;DHT22;58514;48.398;-4.274;2022-08-19T00:11:51;19.40;95.00
70269;DHT22;58514;48.398;-4.274;2022-08-19T00:14:17;19.40;95.00
70269;DHT22;58514;48.398;-4.274;2022-08-19T00:16:44;19.40;95.20
70269;DHT22;58514;48.398;-4.274;2022-08-19T00:19:10;19.50;95.00
70269;DHT22;58514;48.398;-4.274;2022-08-19T00:21:35;19.50;95.10
70269;DHT22;58514;48.398;-4.274;2022-08-19T00:24:05;19.50;95.10
70269;DHT22;58514;48.398;-4.274;2022-08-19T00:26:31;19.50;95.10
70269;DHT22;58514;48.398;-4.274;2022-08-19T00:28:56;19.50;95.10
70269;DHT22;58514;48.398;-4.274;2022-08-19T00:31:22;19.50;95.10
70269;DHT22;58514;48.398;-4.274;2022-08-19T00:33:47;19.60;95.10
70269;DHT22;58514;48.398;-4.274;2022-08-19T00:36:15;19.60;95.10
70269;DHT22;58514;48.398;-4.274;2022-08-19T00:38:41;19.60;95.10
70269;DHT22;58514;48.398;-4.274;2022-08-19T00:41:09;19.60;95.10
70269;DHT22;58514;48.398;-4.274;2022-08-19T00:43:35;19.60;95.10
70269;DHT22;58514;48.398;-4.274;2022-08-19T00:46:00;19.60;95.30
70269;DHT22;58514;48.398;-4.274;2022-08-19T00:48:30;19.60;95.40
70269;DHT22;58514;48.398;-4.274;2022-08-19T00:50:56;19.60;95.00
70269;DHT22;58514;48.398;-4.274;2022-08-19T00:53:23;19.60;95.20
70269;DHT22;58514;48.398;-4.274;2022-08-19T00:55:50;19.60;95.20
70269;DHT22;58514;48.398;-4.274;2022-08-19T00:58:17;19.60;95.20
70269;DHT22;58514;48.398;-4.274;2022-08-19T01:00:43;19.50;95.30
70269;DHT22;58514;48.398;-4.274;2022-08-19T01:03:10;19.60;95.50
70269;DHT22;58514;48.398;-4.274;2022-08-19T01:05:36;19.50;95.30
70269;DHT22;58514;48.398;-4.274;2022-08-19T01:08:02;19.50;95.30
70269;DHT22;58514;48.398;-4.274;2022-08-19T01:10:30;19.50;95.30
70269;DHT22;58514;48.398;-4.274;2022-08-19T01:12:57;19.50;95.40
70269;DHT22;58514;48.398;-4.274;2022-08-19T01:15:24;19.50;95.30
70269;DHT22;58514;48.398;-4.274;2022-08-19T01:17:51;19.50;95.40
70269;DHT22;58514;48.398;-4.274;2022-08-19T01:20:18;19.50;95.50
70269;DHT22;58514;48.398;-4.274;2022-08-19T01:22:46;19.50;95.30
70269;DHT22;58514;48.398;-4.274;2022-08-19T01:25:12;19.50;95.50
70269;DHT22;58514;48.398;-4.274;2022-08-19T01:27:43;19.50;95.50
70269;DHT22;58514;48.398;-4.274;2022-08-19T01:30:10;19.50;95.70
70269;DHT22;58514;48.398;-4.274;2022-08-19T01:32:36;19.50;95.60
70269;DHT22;58514;48.398;-4.274;2022-08-19T01:35:02;19.50;95.60
70269;DHT22;58514;48.398;-4.274;2022-08-19T01:37:28;19.50;95.50
70269;DHT22;58514;48.398;-4.274;2022-08-19T01:39:54;19.50;95.70
70269;DHT22;58514;48.398;-4.274;2022-08-19T01:42:20;19.50;95.70
70269;DHT22;58514;48.398;-4.274;2022-08-19T01:44:47;19.50;95.50
70269;DHT22;58514;48.398;-4.274;2022-08-19T01:47:13;19.50;95.80
70269;DHT22;58514;48.398;-4.274;2022-08-19T01:49:38;19.40;95.70
70269;DHT22;58514;48.398;-4.274;2022-08-19T01:52:04;19.50;95.60
70269;DHT22;58514;48.398;-4.274;2022-08-19T01:54:30;19.40;95.80
70269;DHT22;58514;48.398;-4.274;2022-08-19T01:57:08;19.40;95.80
70269;DHT22;58514;48.398;-4.274;2022-08-19T01:59:34;19.40;96.00
70269;DHT22;58514;48.398;-4.274;2022-08-19T02:02:02;19.40;95.80
70269;DHT22;58514;48.398;-4.274;2022-08-19T02:04:28;19.30;95.70
70269;DHT22;58514;48.398;-4.274;2022-08-19T02:06:54;19.30;96.30
70269;DHT22;58514;48.398;-4.274;2022-08-19T02:09:19;19.30;95.90
70269;DHT22;58514;48.398;-4.274;2022-08-19T02:11:45;19.30;96.10
70269;DHT22;58514;48.398;-4.274;2022-08-19T02:14:10;19.30;96.00
70269;DHT22;58514;48.398;-4.274;2022-08-19T02:16:36;19.30;96.30
70269;DHT22;58514;48.398;-4.274;2022-08-19T02:19:02;19.30;96.20
70269;DHT22;58514;48.398;-4.274;2022-08-19T02:21:28;19.30;96.20
70269;DHT22;58514;48.398;-4.274;2022-08-19T02:23:54;19.30;96.40
70269;DHT22;58514;48.398;-4.274;2022-08-19T02:26:20;19.20;96.40
70269;DHT22;58514;48.398;-4.274;2022-08-19T02:28:46;19.20;96.20
70269;DHT22;58514;48.398;-4.274;2022-08-19T02:31:14;19.20;96.50
70269;DHT22;58514;48.398;-4.274;2022-08-19T02:33:42;19.20;96.50
70269;DHT22;58514;48.398;-4.274;2022-08-19T02:36:08;19.20;96.50
70269;DHT22;58514;48.398;-4.274;2022-08-19T02:38:34;19.20;96.60
70269;DHT22;58514;48.398;-4.274;2022-08-19T02:41:01;19.20;96.60
70269;DHT22;58514;48.398;-4.274;2022-08-19T02:43:28;19.20;96.40
70269;DHT22;58514;48.398;-4.274;2022-08-19T02:45:54;19.20;96.50
70269;DHT22;58514;48.398;-4.274;2022-08-19T02:48:20;19.20;96.50
70269;DHT22;58514;48.398;-4.274;2022-08-19T02:50:46;19.20;96.50
70269;DHT22;58514;48.398;-4.274;2022-08-19T02:53:13;19.20;96.50
70269;DHT22;58514;48.398;-4.274;2022-08-19T02:55:43;19.20;96.40
70269;DHT22;58514;48.398;-4.274;2022-08-19T02:58:09;19.20;96.60
70269;DHT22;58514;48.398;-4.274;2022-08-19T03:00:34;19.20;96.50
70269;DHT22;58514;48.398;-4.274;2022-08-19T03:03:00;19.20;96.40
70269;DHT22;58514;48.398;-4.274;2022-08-19T03:05:25;19.20;96.40
70269;DHT22;58514;48.398;-4.274;2022-08-19T03:07:52;19.10;96.80
70269;DHT22;58514;48.398;-4.274;2022-08-19T03:10:17;19.10;96.80
70269;DHT22;58514;48.398;-4.274;2022-08-19T03:12:43;19.10;96.60
70269;DHT22;58514;48.398;-4.274;2022-08-19T03:15:10;19.10;96.50
70269;DHT22;58514;48.398;-4.274;2022-08-19T03:17:35;19.00;96.60
70269;DHT22;58514;48.398;-4.274;2022-08-19T03:20:01;19.10;96.60
70269;DHT22;58514;48.398;-4.274;2022-08-19T03:22:27;19.00;96.70
70269;DHT22;58514;48.398;-4.274;2022-08-19T03:24:52;19.00;96.80
70269;DHT22;58514;48.398;-4.274;2022-08-19T03:27:18;19.00;97.10
70269;DHT22;58514;48.398;-4.274;2022-08-19T03:29:44;19.00;96.70
70269;DHT22;58514;48.398;-4.274;2022-08-19T03:32:10;19.00;97.00
70269;DHT22;58514;48.398;-4.274;2022-08-19T03:34:36;19.00;96.90
70269;DHT22;58514;48.398;-4.274;2022-08-19T03:37:03;19.00;97.10
70269;DHT22;58514;48.398;-4.274;2022-08-19T03:39:30;19.00;96.90
70269;DHT22;58514;48.398;-4.274;2022-08-19T03:41:55;19.00;96.90
70269;DHT22;58514;48.398;-4.274;2022-08-19T03:44:23;19.00;97.00
70269;DHT22;58514;48.398;-4.274;2022-08-19T03:46:53;19.00;97.00
70269;DHT22;58514;48.398;-4.274;2022-08-19T03:49:20;19.00;97.10
70269;DHT22;58514;48.398;-4.274;2022-08-19T03:51:47;19.00;97.00
70269;DHT22;58514;48.398;-4.274;2022-08-19T03:54:13;19.00;97.10
70269;DHT22;58514;48.398;-4.274;2022-08-19T03:56:40;19.00;97.00
70269;DHT22;58514;48.398;-4.274;2022-08-19T03:59:07;19.00;97.20
70269;DHT22;58514;48.398;-4.274;2022-08-19T04:01:34;19.00;97.20
70269;DHT22;58514;48.398;-4.274;2022-08-19T04:04:00;19.00;97.40
70269;DHT22;58514;48.398;-4.274;2022-08-19T04:06:27;19.00;97.70
70269;DHT22;58514;48.398;-4.274;2022-08-19T04:08:53;19.00;97.40
70269;DHT22;58514;48.398;-4.274;2022-08-19T04:11:23;18.90;97.30
70269;DHT22;58514;48.398;-4.274;2022-08-19T04:13:50;18.90;97.50
70269;DHT22;58514;48.398;-4.274;2022-08-19T04:16:17;18.90;97.20
70269;DHT22;58514;48.398;-4.274;2022-08-19T04:18:43;18.90;97.50
70269;DHT22;58514;48.398;-4.274;2022-08-19T04:21:08;18.90;97.40
70269;DHT22;58514;48.398;-4.274;2022-08-19T04:23:40;18.90;97.30
70269;DHT22;58514;48.398;-4.274;2022-08-19T04:26:05;18.90;97.30
70269;DHT22;58514;48.398;-4.274;2022-08-19T04:28:31;18.90;97.50
70269;DHT22;58514;48.398;-4.274;2022-08-19T04:30:57;18.90;97.60
70269;DHT22;58514;48.398;-4.274;2022-08-19T04:33:24;18.90;97.30
70269;DHT22;58514;48.398;-4.274;2022-08-19T04:35:50;18.90;97.30
70269;DHT22;58514;48.398;-4.274;2022-08-19T04:38:17;18.90;97.40
70269;DHT22;58514;48.398;-4.274;2022-08-19T04:40:44;18.90;97.30
70269;DHT22;58514;48.398;-4.274;2022-08-19T04:43:28;18.90;97.60
70269;DHT22;58514;48.398;-4.274;2022-08-19T04:45:54;18.90;97.40
70269;DHT22;58514;48.398;-4.274;2022-08-19T04:48:20;18.90;97.30
70269;DHT22;58514;48.398;-4.274;2022-08-19T04:50:51;18.90;97.50
70269;DHT22;58514;48.398;-4.274;2022-08-19T04:53:23;18.90;97.40
70269;DHT22;58514;48.398;-4.274;2022-08-19T04:55:49;18.90;97.50
70269;DHT22;58514;48.398;-4.274;2022-08-19T04:58:15;18.90;97.40
70269;DHT22;58514;48.398;-4.274;2022-08-19T05:00:41;18.90;97.40
70269;DHT22;58514;48.398;-4.274;2022-08-19T05:03:07;18.80;97.20
70269;DHT22;58514;48.398;-4.274;2022-08-19T05:05:33;18.80;97.50
70269;DHT22;58514;48.398;-4.274;2022-08-19T05:07:59;18.80;97.60
70269;DHT22;58514;48.398;-4.274;2022-08-19T05:10:24;18.80;98.10
70269;DHT22;58514;48.398;-4.274;2022-08-19T05:12:50;18.80;97.70
70269;DHT22;58514;48.398;-4.274;2022-08-19T05:15:15;18.80;97.90
70269;DHT22;58514;48.398;-4.274;2022-08-19T05:17:41;18.80;97.70
70269;DHT22;58514;48.398;-4.274;2022-08-19T05:20:26;18.90;97.70
70269;DHT22;58514;48.398;-4.274;2022-08-19T05:23:11;18.80;97.90
70269;DHT22;58514;48.398;-4.274;2022-08-19T05:25:39;18.80;98.10
70269;DHT22;58514;48.398;-4.274;2022-08-19T05:28:05;18.80;97.90
70269;DHT22;58514;48.398;-4.274;2022-08-19T05:30:30;18.80;98.10
70269;DHT22;58514;48.398;-4.274;2022-08-19T05:32:57;18.80;98.00
70269;DHT22;58514;48.398;-4.274;2022-08-19T05:35:23;18.80;98.10
70269;DHT22;58514;48.398;-4.274;2022-08-19T05:37:49;18.80;98.10
70269;DHT22;58514;48.398;-4.274;2022-08-19T05:40:14;18.80;98.20
70269;DHT22;58514;48.398;-4.274;2022-08-19T05:42:40;18.80;98.30
70269;DHT22;58514;48.398;-4.274;2022-08-19T05:45:06;18.80;98.50
70269;DHT22;58514;48.398;-4.274;2022-08-19T05:47:31;18.80;98.40
70269;DHT22;58514;48.398;-4.274;2022-08-19T05:49:57;18.80;98.50
70269;DHT22;58514;48.398;-4.274;2022-08-19T05:52:23;18.80;98.50
70269;DHT22;58514;48.398;-4.274;2022-08-19T05:54:48;18.80;98.60
70269;DHT22;58514;48.398;-4.274;2022-08-19T05:57:16;18.80;98.30
70269;DHT22;58514;48.398;-4.274;2022-08-19T05:59:41;18.80;98.80
70269;DHT22;58514;48.398;-4.274;2022-08-19T06:02:07;18.80;98.30
70269;DHT22;58514;48.398;-4.274;2022-08-19T06:04:33;18.80;98.60
70269;DHT22;58514;48.398;-4.274;2022-08-19T06:06:59;18.80;98.40
70269;DHT22;58514;48.398;-4.274;2022-08-19T06:09:24;18.80;98.40
70269;DHT22;58514;48.398;-4.274;2022-08-19T06:11:51;18.80;98.50
70269;DHT22;58514;48.398;-4.274;2022-08-19T06:14:25;18.80;98.70
70269;DHT22;58514;48.398;-4.274;2022-08-19T06:16:50;18.90;99.00
70269;DHT22;58514;48.398;-4.274;2022-08-19T06:19:18;18.90;98.50
70269;DHT22;58514;48.398;-4.274;2022-08-19T06:21:45;18.80;98.30
70269;DHT22;58514;48.398;-4.274;2022-08-19T06:24:12;18.90;98.40
70269;DHT22;58514;48.398;-4.274;2022-08-19T06:26:39;18.90;98.50
70269;DHT22;58514;48.398;-4.274;2022-08-19T06:29:06;18.90;98.90
70269;DHT22;58514;48.398;-4.274;2022-08-19T06:31:32;18.90;98.60
70269;DHT22;58514;48.398;-4.274;2022-08-19T06:34:02;18.90;98.40
70269;DHT22;58514;48.398;-4.274;2022-08-19T06:36:30;18.90;98.70
70269;DHT22;58514;48.398;-4.274;2022-08-19T06:38:57;18.90;98.50
70269;DHT22;58514;48.398;-4.274;2022-08-19T06:41:23;19.00;98.60
70269;DHT22;58514;48.398;-4.274;2022-08-19T06:43:49;19.00;98.40
70269;DHT22;58514;48.398;-4.274;2022-08-19T06:46:15;19.00;98.50
70269;DHT22;58514;48.398;-4.274;2022-08-19T06:48:41;19.00;98.60
70269;DHT22;58514;48.398;-4.274;2022-08-19T06:51:07;19.10;98.80
70269;DHT22;58514;48.398;-4.274;2022-08-19T06:53:33;19.10;98.50
70269;DHT22;58514;48.398;-4.274;2022-08-19T06:55:59;19.00;98.40
70269;DHT22;58514;48.398;-4.274;2022-08-19T06:58:28;19.10;98.70
70269;DHT22;58514;48.398;-4.274;2022-08-19T07:01:03;19.10;98.60
70269;DHT22;58514;48.398;-4.274;2022-08-19T07:03:30;19.10;98.50
70269;DHT22;58514;48.398;-4.274;2022-08-19T07:05:57;19.10;98.70
70269;DHT22;58514;48.398;-4.274;2022-08-19T07:08:22;19.10;99.10
70269;DHT22;58514;48.398;-4.274;2022-08-19T07:10:49;19.10;98.90
70269;DHT22;58514;48.398;-4.274;2022-08-19T07:13:15;19.10;98.90
70269;DHT22;58514;48.398;-4.274;2022-08-19T07:15:40;19.10;99.40
70269;DHT22;58514;48.398;-4.274;2022-08-19T07:18:06;19.00;99.20
70269;DHT22;58514;48.398;-4.274;2022-08-19T07:20:32;19.00;99.30
70269;DHT22;58514;48.398;-4.274;2022-08-19T07:22:58;19.00;99.70
70269;DHT22;58514;48.398;-4.274;2022-08-19T07:25:23;18.90;99.60
70269;DHT22;58514;48.398;-4.274;2022-08-19T07:27:49;18.80;99.40
70269;DHT22;58514;48.398;-4.274;2022-08-19T07:30:15;18.80;99.80
70269;DHT22;58514;48.398;-4.274;2022-08-19T07:32:41;18.80;99.90
70269;DHT22;58514;48.398;-4.274;2022-08-19T07:35:07;18.80;99.90
70269;DHT22;58514;48.398;-4.274;2022-08-19T07:37:34;18.70;99.90
70269;DHT22;58514;48.398;-4.274;2022-08-19T07:40:06;18.80;99.90
70269;DHT22;58514;48.398;-4.274;2022-08-19T07:42:32;18.80;99.90
70269;DHT22;58514;48.398;-4.274;2022-08-19T07:44:58;18.80;99.90
70269;DHT22;58514;48.398;-4.274;2022-08-19T07:47:23;18.80;99.90
70269;DHT22;58514;48.398;-4.274;2022-08-19T07:49:49;18.80;99.90
70269;DHT22;58514;48.398;-4.274;2022-08-19T07:52:14;18.80;99.90
70269;DHT22;58514;48.398;-4.274;2022-08-19T07:54:42;18.90;99.90
70269;DHT22;58514;48.398;-4.274;2022-08-19T07:57:07;18.80;99.90
70269;DHT22;58514;48.398;-4.274;2022-08-19T07:59:33;18.80;99.90
70269;DHT22;58514;48.398;-4.274;2022-08-19T08:01:59;18.90;99.90
70269;DHT22;58514;48.398;-4.274;2022-08-19T08:04:25;18.90;99.90
70269;DHT22;58514;48.398;-4.274;2022-08-19T08:07:09;18.90;99.90
70269;DHT22;58514;48.398;-4.274;2022-08-19T08:09:54;18.90;99.90
70269;DHT22;58514;48.398;-4.274;2022-08-19T08:12:22;18.90;99.90
70269;DHT22;58514;48.398;-4.274;2022-08-19T08:14:50;18.90;99.90
70269;DHT22;58514;48.398;-4.274;2022-08-19T08:17:18;18.90;99.90
70269;DHT22;58514;48.398;-4.274;2022-08-19T08:19:44;18.90;99.90
70269;DHT22;58514;48.398;-4.274;2022-08-19T08:22:11;18.90;99.90
70269;DHT22;58514;48.398;-4.274;2022-08-19T08:25:03;18.90;99.90
70269;DHT22;58514;48.398;-4.274;2022-08-19T08:27:29;18.90;99.90
70269;DHT22;58514;48.398;-4.274;2022-08-19T08:29:56;18.90;99.90
70269;DHT22;58514;48.398;-4.274;2022-08-19T08:32:22;19.00;99.90
70269;DHT22;58514;48.398;-4.274;2022-08-19T08:34:48;19.00;99.90
70269;DHT22;58514;48.398;-4.274;2022-08-19T08:37:13;19.10;99.90
70269;DHT22;58514;48.398;-4.274;2022-08-19T08:39:39;19.20;99.90
70269;DHT22;58514;48.398;-4.274;2022-08-19T08:47:03;19.20;99.90
70269;DHT22;58514;48.398;-4.274;2022-08-19T08:50:13;19.20;99.90
70269;DHT22;58514;48.398;-4.274;2022-08-19T08:52:39;19.10;99.90
70269;DHT22;58514;48.398;-4.274;2022-08-19T08:55:09;19.20;99.90
70269;DHT22;58514;48.398;-4.274;2022-08-19T08:58:20;19.20;99.90
70269;DHT22;58514;48.398;-4.274;2022-08-19T09:00:28;19.20;99.90
70269;DHT22;58514;48.398;-4.274;2022-08-19T09:02:55;19.30;99.90
70269;DHT22;58514;48.398;-4.274;2022-08-19T09:05:22;19.40;99.90
70269;DHT22;58514;48.398;-4.274;2022-08-19T09:10:26;19.50;99.90
70269;DHT22;58514;48.398;-4.274;2022-08-19T09:12:56;19.50;99.90
70269;DHT22;58514;48.398;-4.274;2022-08-19T09:15:28;19.50;99.90
70269;DHT22;58514;48.398;-4.274;2022-08-19T09:17:58;19.60;99.90
70269;DHT22;58514;48.398;-4.274;2022-08-19T09:20:24;19.60;99.90
70269;DHT22;58514;48.398;-4.274;2022-08-19T09:22:50;19.60;99.90
70269;DHT22;58514;48.398;-4.274;2022-08-19T09:25:17;19.60;99.90
70269;DHT22;58514;48.398;-4.274;2022-08-19T09:27:43;19.70;99.90
70269;DHT22;58514;48.398;-4.274;2022-08-19T09:30:11;19.60;99.90
70269;DHT22;58514;48.398;-4.274;2022-08-19T09:32:37;19.70;99.90
70269;DHT22;58514;48.398;-4.274;2022-08-19T09:35:07;19.70;99.90
70269;DHT22;58514;48.398;-4.274;2022-08-19T09:37:33;19.70;99.90
70269;DHT22;58514;48.398;-4.274;2022-08-19T09:39:58;19.80;99.90
70269;DHT22;58514;48.398;-4.274;2022-08-19T09:42:24;19.80;99.90
70269;DHT22;58514;48.398;-4.274;2022-08-19T09:44:49;19.80;99.90
70269;DHT22;58514;48.398;-4.274;2022-08-19T09:47:15;19.80;99.90
70269;DHT22;58514;48.398;-4.274;2022-08-19T09:49:40;19.70;99.90
70269;DHT22;58514;48.398;-4.274;2022-08-19T09:52:09;19.70;99.90
70269;DHT22;58514;48.398;-4.274;2022-08-19T09:54:36;19.70;99.90
70269;DHT22;58514;48.398;-4.274;2022-08-19T09:57:02;19.70;99.90
70269;DHT22;58514;48.398;-4.274;2022-08-19T09:59:28;19.80;99.90
70269;DHT22;58514;48.398;-4.274;2022-08-19T10:01:53;19.80;99.90
70269;DHT22;58514;48.398;-4.274;2022-08-19T10:04:19;19.80;99.90
70269;DHT22;58514;48.398;-4.274;2022-08-19T10:06:46;19.80;99.90
70269;DHT22;58514;48.398;-4.274;2022-08-19T10:09:13;19.80;99.90
70269;DHT22;58514;48.398;-4.274;2022-08-19T10:11:40;19.80;99.90
70269;DHT22;58514;48.398;-4.274;2022-08-19T10:14:06;19.80;99.90
70269;DHT22;58514;48.398;-4.274;2022-08-19T10:16:32;19.90;99.90
70269;DHT22;58514;48.398;-4.274;2022-08-19T10:18:58;19.90;99.90
70269;DHT22;58514;48.398;-4.274;2022-08-19T10:21:27;20.10;99.90
70269;DHT22;58514;48.398;-4.274;2022-08-19T10:23:54;20.20;99.90
70269;DHT22;58514;48.398;-4.274;2022-08-19T10:26:23;20.40;99.90
70269;DHT22;58514;48.398;-4.274;2022-08-19T10:28:49;20.40;99.90
70269;DHT22;58514;48.398;-4.274;2022-08-19T10:31:19;20.30;99.80
70269;DHT22;58514;48.398;-4.274;2022-08-19T10:33:46;20.30;99.90
70269;DHT22;58514;48.398;-4.274;2022-08-19T10:36:14;20.30;99.90
70269;DHT22;58514;48.398;-4.274;2022-08-19T10:38:43;20.30;99.90
70269;DHT22;58514;48.398;-4.274;2022-08-19T10:41:11;20.30;99.90
70269;DHT22;58514;48.398;-4.274;2022-08-19T10:43:37;20.40;99.90
70269;DHT22;58514;48.398;-4.274;2022-08-19T10:46:04;20.40;99.90
70269;DHT22;58514;48.398;-4.274;2022-08-19T10:48:31;20.40;99.90
70269;DHT22;58514;48.398;-4.274;2022-08-19T10:50:57;20.40;99.90
70269;DHT22;58514;48.398;-4.274;2022-08-19T10:53:41;20.50;99.90
70269;DHT22;58514;48.398;-4.274;2022-08-19T10:56:06;20.60;99.90
70269;DHT22;58514;48.398;-4.274;2022-08-19T10:58:50;20.70;99.90
70269;DHT22;58514;48.398;-4.274;2022-08-19T11:01:16;20.80;99.90
70269;DHT22;58514;48.398;-4.274;2022-08-19T11:03:41;20.80;99.40
70269;DHT22;58514;48.398;-4.274;2022-08-19T11:06:08;20.80;99.30
70269;DHT22;58514;48.398;-4.274;2022-08-19T11:08:34;20.70;99.10
70269;DHT22;58514;48.398;-4.274;2022-08-19T11:11:01;20.80;99.70
70269;DHT22;58514;48.398;-4.274;2022-08-19T11:13:29;20.90;99.90
70269;DHT22;58514;48.398;-4.274;2022-08-19T11:15:59;21.20;99.90
70269;DHT22;58514;48.398;-4.274;2022-08-19T11:18:24;21.60;99.90
70269;DHT22;58514;48.398;-4.274;2022-08-19T11:20:51;22.20;99.90
70269;DHT22;58514;48.398;-4.274;2022-08-19T11:23:16;22.70;99.90
70269;DHT22;58514;48.398;-4.274;2022-08-19T11:25:42;23.00;99.90
70269;DHT22;58514;48.398;-4.274;2022-08-19T11:28:07;23.20;95.90
70269;DHT22;58514;48.398;-4.274;2022-08-19T11:30:33;23.10;95.60
70269;DHT22;58514;48.398;-4.274;2022-08-19T11:32:59;23.00;96.00
70269;DHT22;58514;48.398;-4.274;2022-08-19T11:35:26;23.00;97.40
70269;DHT22;58514;48.398;-4.274;2022-08-19T11:37:51;23.20;98.40
70269;DHT22;58514;48.398;-4.274;2022-08-19T11:40:17;23.70;98.30
70269;DHT22;58514;48.398;-4.274;2022-08-19T11:42:43;24.00;97.60
70269;DHT22;58514;48.398;-4.274;2022-08-19T11:45:26;24.30;95.80
70269;DHT22;58514;48.398;-4.274;2022-08-19T11:47:52;24.40;95.90
70269;DHT22;58514;48.398;-4.274;2022-08-19T11:50:17;24.80;95.70
70269;DHT22;58514;48.398;-4.274;2022-08-19T11:52:43;25.10;94.00
70269;DHT22;58514;48.398;-4.274;2022-08-19T11:55:10;25.20;93.30
70269;DHT22;58514;48.398;-4.274;2022-08-19T11:57:36;25.10;92.10
70269;DHT22;58514;48.398;-4.274;2022-08-19T12:00:03;25.20;92.40
70269;DHT22;58514;48.398;-4.274;2022-08-19T12:02:29;25.50;92.80
70269;DHT22;58514;48.398;-4.274;2022-08-19T12:04:55;26.00;94.40
70269;DHT22;58514;48.398;-4.274;2022-08-19T12:07:20;26.60;93.30
70269;DHT22;58514;48.398;-4.274;2022-08-19T12:09:46;27.10;92.20
70269;DHT22;58514;48.398;-4.274;2022-08-19T12:12:12;27.50;91.50
70269;DHT22;58514;48.398;-4.274;2022-08-19T12:14:38;27.90;90.20
70269;DHT22;58514;48.398;-4.274;2022-08-19T12:17:04;28.10;87.80
70269;DHT22;58514;48.398;-4.274;2022-08-19T12:19:32;28.40;87.00
70269;DHT22;58514;48.398;-4.274;2022-08-19T12:21:59;28.60;86.50
70269;DHT22;58514;48.398;-4.274;2022-08-19T12:24:26;28.60;85.70
70269;DHT22;58514;48.398;-4.274;2022-08-19T12:26:52;28.90;85.80
70269;DHT22;58514;48.398;-4.274;2022-08-19T12:29:21;29.10;84.30
70269;DHT22;58514;48.398;-4.274;2022-08-19T12:31:47;29.20;82.60
70269;DHT22;58514;48.398;-4.274;2022-08-19T12:34:12;29.30;81.90
70269;DHT22;58514;48.398;-4.274;2022-08-19T12:36:38;29.40;81.10
70269;DHT22;58514;48.398;-4.274;2022-08-19T12:39:04;29.40;79.70
70269;DHT22;58514;48.398;-4.274;2022-08-19T12:41:30;29.40;77.30
70269;DHT22;58514;48.398;-4.274;2022-08-19T12:43:56;29.40;77.10
70269;DHT22;58514;48.398;-4.274;2022-08-19T12:46:23;29.50;78.10
70269;DHT22;58514;48.398;-4.274;2022-08-19T12:48:49;29.60;77.00
70269;DHT22;58514;48.398;-4.274;2022-08-19T12:51:16;29.70;76.50
70269;DHT22;58514;48.398;-4.274;2022-08-19T12:53:43;29.80;76.70
70269;DHT22;58514;48.398;-4.274;2022-08-19T12:56:09;29.80;71.90
70269;DHT22;58514;48.398;-4.274;2022-08-19T12:58:36;29.80;75.90
70269;DHT22;58514;48.398;-4.274;2022-08-19T13:01:11;29.90;74.40
70269;DHT22;58514;48.398;-4.274;2022-08-19T13:03:38;30.00;75.60
70269;DHT22;58514;48.398;-4.274;2022-08-19T13:06:03;30.00;75.40
70269;DHT22;58514;48.398;-4.274;2022-08-19T13:08:29;30.10;75.70
70269;DHT22;58514;48.398;-4.274;2022-08-19T13:10:55;30.10;74.00
70269;DHT22;58514;48.398;-4.274;2022-08-19T13:13:20;30.00;73.30
70269;DHT22;58514;48.398;-4.274;2022-08-19T13:15:47;29.90;68.00
70269;DHT22;58514;48.398;-4.274;2022-08-19T13:18:12;29.80;71.30
70269;DHT22;58514;48.398;-4.274;2022-08-19T13:20:38;29.80;70.20
70269;DHT22;58514;48.398;-4.274;2022-08-19T13:23:06;29.80;71.10
70269;DHT22;58514;48.398;-4.274;2022-08-19T13:25:32;29.70;73.20
70269;DHT22;58514;48.398;-4.274;2022-08-19T13:27:58;29.80;73.10
70269;DHT22;58514;48.398;-4.274;2022-08-19T13:30:24;29.90;71.30
70269;DHT22;58514;48.398;-4.274;2022-08-19T13:33:09;29.80;65.60
70269;DHT22;58514;48.398;-4.274;2022-08-19T13:35:43;29.80;69.80
70269;DHT22;58514;48.398;-4.274;2022-08-19T13:38:09;29.80;65.70
70269;DHT22;58514;48.398;-4.274;2022-08-19T13:40:35;29.60;62.80
70269;DHT22;58514;48.398;-4.274;2022-08-19T13:43:02;29.50;70.20
70269;DHT22;58514;48.398;-4.274;2022-08-19T13:45:29;29.50;70.00
70269;DHT22;58514;48.398;-4.274;2022-08-19T13:47:55;29.50;69.30
70269;DHT22;58514;48.398;-4.274;2022-08-19T13:50:24;29.40;67.70
70269;DHT22;58514;48.398;-4.274;2022-08-19T13:52:53;29.20;70.20
70269;DHT22;58514;48.398;-4.274;2022-08-19T13:55:20;29.00;65.40
70269;DHT22;58514;48.398;-4.274;2022-08-19T13:57:45;28.90;69.00
70269;DHT22;58514;48.398;-4.274;2022-08-19T14:00:12;28.90;70.00
70269;DHT22;58514;48.398;-4.274;2022-08-19T14:02:39;29.00;69.50
70269;DHT22;58514;48.398;-4.274;2022-08-19T14:05:05;29.00;70.50
70269;DHT22;58514;48.398;-4.274;2022-08-19T14:07:31;28.80;70.80
70269;DHT22;58514;48.398;-4.274;2022-08-19T14:09:57;28.70;70.80
70269;DHT22;58514;48.398;-4.274;2022-08-19T14:12:23;28.60;70.60
70269;DHT22;58514;48.398;-4.274;2022-08-19T14:14:48;28.50;72.50
70269;DHT22;58514;48.398;-4.274;2022-08-19T14:17:14;28.40;71.70
70269;DHT22;58514;48.398;-4.274;2022-08-19T14:19:40;28.30;68.60
70269;DHT22;58514;48.398;-4.274;2022-08-19T14:22:06;28.10;69.90
70269;DHT22;58514;48.398;-4.274;2022-08-19T14:24:32;27.90;70.00
70269;DHT22;58514;48.398;-4.274;2022-08-19T14:26:58;27.80;66.60
70269;DHT22;58514;48.398;-4.274;2022-08-19T14:29:24;27.60;70.40
70269;DHT22;58514;48.398;-4.274;2022-08-19T14:31:50;27.50;64.70
70269;DHT22;58514;48.398;-4.274;2022-08-19T14:34:15;27.30;59.70
70269;DHT22;58514;48.398;-4.274;2022-08-19T14:36:41;27.00;68.60
70269;DHT22;58514;48.398;-4.274;2022-08-19T14:39:07;26.90;69.50
70269;DHT22;58514;48.398;-4.274;2022-08-19T14:41:32;26.90;69.40
70269;DHT22;58514;48.398;-4.274;2022-08-19T14:43:58;26.80;70.80
70269;DHT22;58514;48.398;-4.274;2022-08-19T14:46:25;26.70;65.60
70269;DHT22;58514;48.398;-4.274;2022-08-19T14:48:52;26.70;65.80
70269;DHT22;58514;48.398;-4.274;2022-08-19T14:51:18;26.60;70.50
70269;DHT22;58514;48.398;-4.274;2022-08-19T14:53:44;26.60;70.40
70269;DHT22;58514;48.398;-4.274;2022-08-19T14:56:11;26.50;69.00
70269;DHT22;58514;48.398;-4.274;2022-08-19T14:58:37;26.50;71.30
70269;DHT22;58514;48.398;-4.274;2022-08-19T15:01:03;26.50;70.20
70269;DHT22;58514;48.398;-4.274;2022-08-19T15:03:28;26.40;70.80
70269;DHT22;58514;48.398;-4.274;2022-08-19T15:05:54;26.30;66.70
70269;DHT22;58514;48.398;-4.274;2022-08-19T15:08:21;26.20;67.50
70269;DHT22;58514;48.398;-4.274;2022-08-19T15:10:50;26.20;71.10
70269;DHT22;58514;48.398;-4.274;2022-08-19T15:13:16;26.20;69.30
70269;DHT22;58514;48.398;-4.274;2022-08-19T15:15:41;26.10;70.90
70269;DHT22;58514;48.398;-4.274;2022-08-19T15:18:07;26.00;69.50
70269;DHT22;58514;48.398;-4.274;2022-08-19T15:20:33;26.00;70.60
70269;DHT22;58514;48.398;-4.274;2022-08-19T15:22:59;25.90;70.30